sensor_id;sensor_type;location;lat;lon;timestamp;P1;durP1;ratioP1;P2;durP2;ratioP2
16770;SDS011;8503;52.472;13.344;2023-11-21T00:00:05;2.10;;;1.02;;
16770;SDS011;8503;52.472;13.344;2023-11-21T00:00:53;1.42;;;1.02;;
16770;SDS011;8503;52.472;13.344;2023-11-21T00:01:37;2.28;;;1.30;;
16770;SDS011;8503;52.472;13.344;2023-11-21T00:02:20;2.97;;;1.60;;
16770;SDS011;8503;52.472;13.344;2023-11-21T00:03:03;1.92;;;1.38;;
16770;SDS011;8503;52.472;13.344;2023-11-21T00:03:48;3.42;;;1.58;;
16770;SDS011;8503;52.472;13.344;2023-11-21T00:04:31;2.70;;;1.40;;
16770;SDS011;8503;52.472;13.344;2023-11-21T00:05:14;3.00;;;1.70;;
16770;SDS011;8503;52.472;13.344;2023-11-21T00:05:57;4.72;;;1.75;;
16770;SDS011;8503;52.472;13.344;2023-11-21T00:06:40;2.38;;;1.52;;
16770;SDS011;8503;52.472;13.344;2023-11-21T00:07:23;2.67;;;1.45;;
16770;SDS011;8503;52.472;13.344;2023-11-21T00:08:07;4.72;;;1.80;;
16770;SDS011;8503;52.472;13.344;2023-11-21T00:08:49;2.72;;;1.40;;
16770;SDS011;8503;52.472;13.344;2023-11-21T00:09:32;3.35;;;1.90;;
16770;SDS011;8503;52.472;13.344;2023-11-21T00:10:17;3.17;;;2.00;;
16770;SDS011;8503;52.472;13.344;2023-11-21T00:11:00;3.67;;;2.40;;
16770;SDS011;8503;52.472;13.344;2023-11-21T00:11:43;3.45;;;2.25;;
16770;SDS011;8503;52.472;13.344;2023-11-21T00:12:28;3.55;;;2.30;;
16770;SDS011;8503;52.472;13.344;2023-11-21T00:13:11;3.90;;;2.20;;
16770;SDS011;8503;52.472;13.344;2023-11-21T00:13:55;2.25;;;1.58;;
16770;SDS011;8503;52.472;13.344;2023-11-21T00:14:38;2.72;;;1.90;;
16770;SDS011;8503;52.472;13.344;2023-11-21T00:15:21;2.55;;;1.33;;
16770;SDS011;8503;52.472;13.344;2023-11-21T00:16:04;4.43;;;2.88;;
16770;SDS011;8503;52.472;13.344;2023-11-21T00:16:49;3.80;;;2.03;;
16770;SDS011;8503;52.472;13.344;2023-11-21T00:17:32;3.70;;;1.95;;
16770;SDS011;8503;52.472;13.344;2023-11-21T00:18:15;2.90;;;2.03;;
16770;SDS011;8503;52.472;13.344;2023-11-21T00:18:59;4.72;;;2.33;;
16770;SDS011;8503;52.472;13.344;2023-11-21T00:19:41;4.05;;;2.40;;
16770;SDS011;8503;52.472;13.344;2023-11-21T00:20:24;4.15;;;2.10;;
16770;SDS011;8503;52.472;13.344;2023-11-21T00:21:07;6.15;;;2.83;;
16770;SDS011;8503;52.472;13.344;2023-11-21T00:21:50;4.70;;;2.70;;
16770;SDS011;8503;52.472;13.344;2023-11-21T00:22:33;4.93;;;2.95;;
16770;SDS011;8503;52.472;13.344;2023-11-21T00:23:17;3.42;;;2.30;;
16770;SDS011;8503;52.472;13.344;2023-11-21T00:24:00;4.63;;;2.92;;
16770;SDS011;8503;52.472;13.344;2023-11-21T00:24:42;6.90;;;3.33;;
16770;SDS011;8503;52.472;13.344;2023-11-21T00:25:26;4.07;;;2.80;;
16770;SDS011;8503;52.472;13.344;2023-11-21T00:26:08;4.25;;;2.47;;
16770;SDS011;8503;52.472;13.344;2023-11-21T00:26:51;5.72;;;2.90;;
16770;SDS011;8503;52.472;13.344;2023-11-21T00:27:34;7.07;;;3.20;;
16770;SDS011;8503;52.472;13.344;2023-11-21T00:28:17;5.68;;;3.47;;
16770;SDS011;8503;52.472;13.344;2023-11-21T00:29:01;10.02;;;3.13;;
16770;SDS011;8503;52.472;13.344;2023-11-21T00:29:45;6.68;;;2.90;;
16770;SDS011;8503;52.472;13.344;2023-11-21T00:30:27;4.88;;;3.42;;
16770;SDS011;8503;52.472;13.344;2023-11-21T00:31:11;4.75;;;3.13;;
16770;SDS011;8503;52.472;13.344;2023-11-21T00:31:55;6.10;;;3.45;;
16770;SDS011;8503;52.472;13.344;2023-11-21T00:32:37;6.13;;;3.45;;
16770;SDS011;8503;52.472;13.344;2023-11-21T00:33:20;6.82;;;3.20;;
16770;SDS011;8503;52.472;13.344;2023-11-21T00:34:04;6.72;;;3.45;;
16770;SDS011;8503;52.472;13.344;2023-11-21T00:34:47;6.47;;;3.53;;
16770;SDS011;8503;52.472;13.344;2023-11-21T00:35:29;5.45;;;2.70;;
16770;SDS011;8503;52.472;13.344;2023-11-21T00:36:13;4.90;;;2.80;;
16770;SDS011;8503;52.472;13.344;2023-11-21T00:36:55;5.88;;;3.72;;
16770;SDS011;8503;52.472;13.344;2023-11-21T00:37:37;6.65;;;3.47;;
16770;SDS011;8503;52.472;13.344;2023-11-21T00:38:20;6.97;;;4.45;;
16770;SDS011;8503;52.472;13.344;2023-11-21T00:39:04;6.72;;;3.83;;
16770;SDS011;8503;52.472;13.344;2023-11-21T00:39:47;7.55;;;3.83;;
16770;SDS011;8503;52.472;13.344;2023-11-21T00:40:29;7.30;;;4.15;;
16770;SDS011;8503;52.472;13.344;2023-11-21T00:41:13;6.45;;;3.83;;
16770;SDS011;8503;52.472;13.344;2023-11-21T00:41:55;6.53;;;4.07;;
16770;SDS011;8503;52.472;13.344;2023-11-21T00:42:39;6.85;;;3.53;;
16770;SDS011;8503;52.472;13.344;2023-11-21T00:43:22;5.13;;;3.22;;
16770;SDS011;8503;52.472;13.344;2023-11-21T00:44:07;5.70;;;3.13;;
16770;SDS011;8503;52.472;13.344;2023-11-21T00:44:49;6.90;;;3.75;;
16770;SDS011;8503;52.472;13.344;2023-11-21T00:45:33;8.70;;;3.95;;
16770;SDS011;8503;52.472;13.344;2023-11-21T00:46:17;7.30;;;3.80;;
16770;SDS011;8503;52.472;13.344;2023-11-21T00:47:00;5.90;;;3.38;;
16770;SDS011;8503;52.472;13.344;2023-11-21T00:48:28;4.93;;;2.95;;
16770;SDS011;8503;52.472;13.344;2023-11-21T00:49:11;7.28;;;4.07;;
16770;SDS011;8503;52.472;13.344;2023-11-21T00:49:54;6.97;;;3.60;;
16770;SDS011;8503;52.472;13.344;2023-11-21T00:50:38;6.68;;;3.20;;
16770;SDS011;8503;52.472;13.344;2023-11-21T00:51:20;6.40;;;3.60;;
16770;SDS011;8503;52.472;13.344;2023-11-21T00:52:04;5.63;;;3.13;;
16770;SDS011;8503;52.472;13.344;2023-11-21T00:52:48;6.53;;;3.40;;
16770;SDS011;8503;52.472;13.344;2023-11-21T00:53:32;7.70;;;4.55;;
16770;SDS011;8503;52.472;13.344;2023-11-21T00:54:15;8.88;;;4.15;;
16770;SDS011;8503;52.472;13.344;2023-11-21T00:54:58;5.55;;;3.05;;
16770;SDS011;8503;52.472;13.344;2023-11-21T00:55:42;9.45;;;4.30;;
16770;SDS011;8503;52.472;13.344;2023-11-21T00:56:26;7.60;;;4.07;;
16770;SDS011;8503;52.472;13.344;2023-11-21T00:57:08;10.80;;;4.60;;
16770;SDS011;8503;52.472;13.344;2023-11-21T00:57:53;7.80;;;4.10;;
16770;SDS011;8503;52.472;13.344;2023-11-21T00:58:35;8.18;;;4.88;;
16770;SDS011;8503;52.472;13.344;2023-11-21T00:59:19;9.60;;;4.43;;
16770;SDS011;8503;52.472;13.344;2023-11-21T01:00:04;8.43;;;5.15;;
16770;SDS011;8503;52.472;13.344;2023-11-21T01:00:49;13.18;;;5.40;;
16770;SDS011;8503;52.472;13.344;2023-11-21T01:01:31;9.48;;;5.05;;
16770;SDS011;8503;52.472;13.344;2023-11-21T01:02:15;10.45;;;4.65;;
16770;SDS011;8503;52.472;13.344;2023-11-21T01:02:57;8.48;;;4.85;;
16770;SDS011;8503;52.472;13.344;2023-11-21T01:03:40;10.00;;;5.47;;
16770;SDS011;8503;52.472;13.344;2023-11-21T01:04:24;11.18;;;5.40;;
16770;SDS011;8503;52.472;13.344;2023-11-21T01:05:06;8.30;;;4.43;;
16770;SDS011;8503;52.472;13.344;2023-11-21T01:05:49;9.02;;;4.25;;
16770;SDS011;8503;52.472;13.344;2023-11-21T01:06:33;11.45;;;5.00;;
16770;SDS011;8503;52.472;13.344;2023-11-21T01:07:15;10.55;;;6.10;;
16770;SDS011;8503;52.472;13.344;2023-11-21T01:07:58;10.18;;;4.05;;
16770;SDS011;8503;52.472;13.344;2023-11-21T01:08:43;13.43;;;5.70;;
16770;SDS011;8503;52.472;13.344;2023-11-21T01:09:25;10.65;;;4.65;;
16770;SDS011;8503;52.472;13.344;2023-11-21T01:10:09;8.93;;;3.80;;
16770;SDS011;8503;52.472;13.344;2023-11-21T01:10:52;11.10;;;5.10;;
16770;SDS011;8503;52.472;13.344;2023-11-21T01:11:36;8.98;;;5.22;;
16770;SDS011;8503;52.472;13.344;2023-11-21T01:12:19;12.40;;;5.55;;
16770;SDS011;8503;52.472;13.344;2023-11-21T01:13:03;15.02;;;6.10;;
16770;SDS011;8503;52.472;13.344;2023-11-21T01:13:46;8.65;;;4.72;;
16770;SDS011;8503;52.472;13.344;2023-11-21T01:14:30;10.40;;;5.25;;
16770;SDS011;8503;52.472;13.344;2023-11-21T01:15:14;13.63;;;5.25;;
16770;SDS011;8503;52.472;13.344;2023-11-21T01:15:56;14.10;;;5.80;;
16770;SDS011;8503;52.472;13.344;2023-11-21T01:16:39;7.95;;;3.92;;
16770;SDS011;8503;52.472;13.344;2023-11-21T01:17:22;14.32;;;5.93;;
16770;SDS011;8503;52.472;13.344;2023-11-21T01:18:05;14.52;;;6.28;;
16770;SDS011;8503;52.472;13.344;2023-11-21T01:18:48;15.57;;;6.55;;
16770;SDS011;8503;52.472;13.344;2023-11-21T01:19:31;12.63;;;7.30;;
16770;SDS011;8503;52.472;13.344;2023-11-21T01:20:14;16.10;;;6.63;;
16770;SDS011;8503;52.472;13.344;2023-11-21T01:20:56;18.15;;;7.38;;
16770;SDS011;8503;52.472;13.344;2023-11-21T01:21:40;14.75;;;6.60;;
16770;SDS011;8503;52.472;13.344;2023-11-21T01:22:23;12.65;;;6.35;;
16770;SDS011;8503;52.472;13.344;2023-11-21T01:23:07;17.65;;;7.22;;
16770;SDS011;8503;52.472;13.344;2023-11-21T01:23:51;12.75;;;5.93;;
16770;SDS011;8503;52.472;13.344;2023-11-21T01:24:33;17.27;;;7.18;;
16770;SDS011;8503;52.472;13.344;2023-11-21T01:25:16;13.60;;;7.45;;
16770;SDS011;8503;52.472;13.344;2023-11-21T01:25:59;15.50;;;6.15;;
16770;SDS011;8503;52.472;13.344;2023-11-21T01:26:42;15.32;;;6.88;;
16770;SDS011;8503;52.472;13.344;2023-11-21T01:27:26;19.90;;;6.80;;
16770;SDS011;8503;52.472;13.344;2023-11-21T01:28:11;18.08;;;7.72;;
16770;SDS011;8503;52.472;13.344;2023-11-21T01:28:53;16.77;;;7.57;;
16770;SDS011;8503;52.472;13.344;2023-11-21T01:29:37;14.48;;;7.70;;
16770;SDS011;8503;52.472;13.344;2023-11-21T01:30:21;20.10;;;8.30;;
16770;SDS011;8503;52.472;13.344;2023-11-21T01:31:04;16.38;;;7.18;;
16770;SDS011;8503;52.472;13.344;2023-11-21T01:31:48;18.30;;;8.07;;
16770;SDS011;8503;52.472;13.344;2023-11-21T01:32:33;18.08;;;7.93;;
16770;SDS011;8503;52.472;13.344;2023-11-21T01:33:16;16.00;;;7.20;;
16770;SDS011;8503;52.472;13.344;2023-11-21T01:33:58;11.13;;;5.80;;
16770;SDS011;8503;52.472;13.344;2023-11-21T01:34:42;17.20;;;8.43;;
16770;SDS011;8503;52.472;13.344;2023-11-21T01:35:25;16.35;;;7.35;;
16770;SDS011;8503;52.472;13.344;2023-11-21T01:36:08;16.85;;;5.80;;
16770;SDS011;8503;52.472;13.344;2023-11-21T01:36:52;19.70;;;7.88;;
16770;SDS011;8503;52.472;13.344;2023-11-21T01:37:34;14.43;;;6.38;;
16770;SDS011;8503;52.472;13.344;2023-11-21T01:38:17;21.58;;;7.30;;
16770;SDS011;8503;52.472;13.344;2023-11-21T01:39:00;13.25;;;5.30;;
16770;SDS011;8503;52.472;13.344;2023-11-21T01:39:49;12.95;;;6.35;;
16770;SDS011;8503;52.472;13.344;2023-11-21T01:40:31;19.50;;;8.38;;
16770;SDS011;8503;52.472;13.344;2023-11-21T01:41:15;19.35;;;6.65;;
16770;SDS011;8503;52.472;13.344;2023-11-21T01:41:58;19.83;;;8.07;;
16770;SDS011;8503;52.472;13.344;2023-11-21T01:42:41;22.90;;;8.40;;
16770;SDS011;8503;52.472;13.344;2023-11-21T01:43:26;17.50;;;7.05;;
16770;SDS011;8503;52.472;13.344;2023-11-21T01:44:08;16.08;;;7.40;;
16770;SDS011;8503;52.472;13.344;2023-11-21T01:44:52;18.10;;;8.30;;
16770;SDS011;8503;52.472;13.344;2023-11-21T01:45:36;18.20;;;7.35;;
16770;SDS011;8503;52.472;13.344;2023-11-21T01:46:20;19.60;;;8.05;;
16770;SDS011;8503;52.472;13.344;2023-11-21T01:47:03;16.85;;;7.65;;
16770;SDS011;8503;52.472;13.344;2023-11-21T01:47:47;22.88;;;8.32;;
16770;SDS011;8503;52.472;13.344;2023-11-21T01:48:31;19.85;;;8.55;;
16770;SDS011;8503;52.472;13.344;2023-11-21T01:49:13;22.17;;;9.00;;
16770;SDS011;8503;52.472;13.344;2023-11-21T01:49:57;23.38;;;8.05;;
16770;SDS011;8503;52.472;13.344;2023-11-21T01:50:40;27.73;;;8.50;;
16770;SDS011;8503;52.472;13.344;2023-11-21T01:51:23;23.02;;;8.10;;
16770;SDS011;8503;52.472;13.344;2023-11-21T01:52:08;18.50;;;7.38;;
16770;SDS011;8503;52.472;13.344;2023-11-21T01:52:52;19.15;;;7.15;;
16770;SDS011;8503;52.472;13.344;2023-11-21T01:53:35;17.33;;;7.20;;
16770;SDS011;8503;52.472;13.344;2023-11-21T01:54:19;19.08;;;5.10;;
16770;SDS011;8503;52.472;13.344;2023-11-21T01:55:03;17.90;;;7.32;;
16770;SDS011;8503;52.472;13.344;2023-11-21T01:55:47;15.63;;;6.70;;
16770;SDS011;8503;52.472;13.344;2023-11-21T01:56:31;20.45;;;8.55;;
16770;SDS011;8503;52.472;13.344;2023-11-21T01:57:13;19.45;;;7.43;;
16770;SDS011;8503;52.472;13.344;2023-11-21T01:57:57;19.73;;;6.55;;
16770;SDS011;8503;52.472;13.344;2023-11-21T01:58:41;22.80;;;8.52;;
16770;SDS011;8503;52.472;13.344;2023-11-21T01:59:24;20.15;;;7.72;;
16770;SDS011;8503;52.472;13.344;2023-11-21T02:00:10;29.70;;;8.38;;
16770;SDS011;8503;52.472;13.344;2023-11-21T02:00:57;20.63;;;8.55;;
16770;SDS011;8503;52.472;13.344;2023-11-21T02:01:40;19.45;;;6.72;;
16770;SDS011;8503;52.472;13.344;2023-11-21T02:02:22;20.33;;;7.90;;
16770;SDS011;8503;52.472;13.344;2023-11-21T02:03:06;21.58;;;9.05;;
16770;SDS011;8503;52.472;13.344;2023-11-21T02:03:49;23.88;;;8.05;;
16770;SDS011;8503;52.472;13.344;2023-11-21T02:04:32;29.98;;;9.85;;
16770;SDS011;8503;52.472;13.344;2023-11-21T02:05:16;16.13;;;8.00;;
16770;SDS011;8503;52.472;13.344;2023-11-21T02:05:59;15.63;;;6.30;;
16770;SDS011;8503;52.472;13.344;2023-11-21T02:06:43;15.93;;;6.28;;
16770;SDS011;8503;52.472;13.344;2023-11-21T02:07:25;17.63;;;6.82;;
16770;SDS011;8503;52.472;13.344;2023-11-21T02:08:08;11.88;;;5.30;;
16770;SDS011;8503;52.472;13.344;2023-11-21T02:08:53;15.32;;;6.78;;
16770;SDS011;8503;52.472;13.344;2023-11-21T02:09:35;16.60;;;6.15;;
16770;SDS011;8503;52.472;13.344;2023-11-21T02:10:19;15.40;;;5.80;;
16770;SDS011;8503;52.472;13.344;2023-11-21T02:11:05;21.85;;;7.50;;
16770;SDS011;8503;52.472;13.344;2023-11-21T02:11:48;15.23;;;6.88;;
16770;SDS011;8503;52.472;13.344;2023-11-21T02:12:31;14.15;;;6.65;;
16770;SDS011;8503;52.472;13.344;2023-11-21T02:13:13;19.10;;;6.15;;
16770;SDS011;8503;52.472;13.344;2023-11-21T02:13:59;13.73;;;5.03;;
16770;SDS011;8503;52.472;13.344;2023-11-21T02:14:42;16.48;;;6.60;;
16770;SDS011;8503;52.472;13.344;2023-11-21T02:15:26;10.77;;;4.97;;
16770;SDS011;8503;52.472;13.344;2023-11-21T02:16:10;12.43;;;5.68;;
16770;SDS011;8503;52.472;13.344;2023-11-21T02:16:54;15.50;;;4.88;;
16770;SDS011;8503;52.472;13.344;2023-11-21T02:17:38;7.35;;;3.47;;
16770;SDS011;8503;52.472;13.344;2023-11-21T02:18:22;11.13;;;5.07;;
16770;SDS011;8503;52.472;13.344;2023-11-21T02:19:05;10.63;;;5.38;;
16770;SDS011;8503;52.472;13.344;2023-11-21T02:19:50;13.48;;;5.00;;
16770;SDS011;8503;52.472;13.344;2023-11-21T02:20:34;7.90;;;4.40;;
16770;SDS011;8503;52.472;13.344;2023-11-21T02:21:18;8.73;;;3.30;;
16770;SDS011;8503;52.472;13.344;2023-11-21T02:22:00;12.43;;;4.65;;
16770;SDS011;8503;52.472;13.344;2023-11-21T02:22:50;6.80;;;3.42;;
16770;SDS011;8503;52.472;13.344;2023-11-21T02:23:37;5.68;;;2.53;;
16770;SDS011;8503;52.472;13.344;2023-11-21T02:24:23;8.40;;;3.78;;
16770;SDS011;8503;52.472;13.344;2023-11-21T02:25:06;11.82;;;5.05;;
16770;SDS011;8503;52.472;13.344;2023-11-21T02:25:49;12.82;;;4.18;;
16770;SDS011;8503;52.472;13.344;2023-11-21T02:26:32;12.30;;;4.95;;
16770;SDS011;8503;52.472;13.344;2023-11-21T02:27:15;12.23;;;5.10;;
16770;SDS011;8503;52.472;13.344;2023-11-21T02:28:03;12.77;;;5.00;;
16770;SDS011;8503;52.472;13.344;2023-11-21T02:28:48;13.60;;;5.43;;
16770;SDS011;8503;52.472;13.344;2023-11-21T02:29:31;10.88;;;4.45;;
16770;SDS011;8503;52.472;13.344;2023-11-21T02:30:14;14.00;;;5.30;;
16770;SDS011;8503;52.472;13.344;2023-11-21T02:30:57;11.80;;;4.43;;
16770;SDS011;8503;52.472;13.344;2023-11-21T02:31:40;13.95;;;4.85;;
16770;SDS011;8503;52.472;13.344;2023-11-21T02:32:29;9.85;;;3.67;;
16770;SDS011;8503;52.472;13.344;2023-11-21T02:33:13;15.98;;;4.60;;
16770;SDS011;8503;52.472;13.344;2023-11-21T02:33:56;13.57;;;5.20;;
16770;SDS011;8503;52.472;13.344;2023-11-21T02:34:39;8.40;;;4.57;;
16770;SDS011;8503;52.472;13.344;2023-11-21T02:35:21;12.95;;;5.78;;
16770;SDS011;8503;52.472;13.344;2023-11-21T02:36:07;10.95;;;4.55;;
16770;SDS011;8503;52.472;13.344;2023-11-21T02:36:50;12.73;;;4.15;;
16770;SDS011;8503;52.472;13.344;2023-11-21T02:37:33;9.90;;;4.32;;
16770;SDS011;8503;52.472;13.344;2023-11-21T02:38:18;7.85;;;3.75;;
16770;SDS011;8503;52.472;13.344;2023-11-21T02:39:00;11.80;;;4.10;;
16770;SDS011;8503;52.472;13.344;2023-11-21T02:39:43;18.08;;;4.93;;
16770;SDS011;8503;52.472;13.344;2023-11-21T02:40:26;8.30;;;3.75;;
16770;SDS011;8503;52.472;13.344;2023-11-21T02:41:09;8.57;;;4.18;;
16770;SDS011;8503;52.472;13.344;2023-11-21T02:41:52;8.75;;;3.28;;
16770;SDS011;8503;52.472;13.344;2023-11-21T02:42:35;10.50;;;4.05;;
16770;SDS011;8503;52.472;13.344;2023-11-21T02:43:18;8.93;;;3.78;;
16770;SDS011;8503;52.472;13.344;2023-11-21T02:44:00;11.35;;;3.97;;
16770;SDS011;8503;52.472;13.344;2023-11-21T02:44:44;10.13;;;4.22;;
16770;SDS011;8503;52.472;13.344;2023-11-21T02:45:26;11.00;;;4.53;;
16770;SDS011;8503;52.472;13.344;2023-11-21T02:46:10;7.63;;;3.20;;
16770;SDS011;8503;52.472;13.344;2023-11-21T02:46:52;6.93;;;3.30;;
16770;SDS011;8503;52.472;13.344;2023-11-21T02:47:35;9.75;;;3.75;;
16770;SDS011;8503;52.472;13.344;2023-11-21T02:48:19;9.32;;;3.50;;
16770;SDS011;8503;52.472;13.344;2023-11-21T02:49:01;7.65;;;3.30;;
16770;SDS011;8503;52.472;13.344;2023-11-21T02:49:44;6.82;;;3.30;;
16770;SDS011;8503;52.472;13.344;2023-11-21T02:50:27;5.63;;;3.05;;
16770;SDS011;8503;52.472;13.344;2023-11-21T02:51:11;7.82;;;3.60;;
16770;SDS011;8503;52.472;13.344;2023-11-21T02:51:53;5.47;;;3.22;;
16770;SDS011;8503;52.472;13.344;2023-11-21T02:52:37;5.32;;;3.15;;
16770;SDS011;8503;52.472;13.344;2023-11-21T02:53:22;6.53;;;2.92;;
16770;SDS011;8503;52.472;13.344;2023-11-21T02:54:05;8.18;;;3.45;;
16770;SDS011;8503;52.472;13.344;2023-11-21T02:54:50;5.70;;;2.75;;
16770;SDS011;8503;52.472;13.344;2023-11-21T02:55:33;6.95;;;2.97;;
16770;SDS011;8503;52.472;13.344;2023-11-21T02:56:16;5.85;;;3.03;;
16770;SDS011;8503;52.472;13.344;2023-11-21T02:56:59;7.95;;;3.50;;
16770;SDS011;8503;52.472;13.344;2023-11-21T02:57:42;5.22;;;2.80;;
16770;SDS011;8503;52.472;13.344;2023-11-21T02:58:24;6.40;;;3.67;;
16770;SDS011;8503;52.472;13.344;2023-11-21T02:59:08;7.95;;;2.45;;
16770;SDS011;8503;52.472;13.344;2023-11-21T02:59:50;5.38;;;2.63;;
16770;SDS011;8503;52.472;13.344;2023-11-21T03:00:33;7.03;;;3.15;;
16770;SDS011;8503;52.472;13.344;2023-11-21T03:01:16;6.28;;;2.88;;
16770;SDS011;8503;52.472;13.344;2023-11-21T03:01:59;5.85;;;2.50;;
16770;SDS011;8503;52.472;13.344;2023-11-21T03:02:42;4.95;;;2.83;;
16770;SDS011;8503;52.472;13.344;2023-11-21T03:03:25;4.65;;;2.78;;
16770;SDS011;8503;52.472;13.344;2023-11-21T03:04:08;7.47;;;3.30;;
16770;SDS011;8503;52.472;13.344;2023-11-21T03:04:51;5.40;;;3.13;;
16770;SDS011;8503;52.472;13.344;2023-11-21T03:05:35;4.07;;;2.28;;
16770;SDS011;8503;52.472;13.344;2023-11-21T03:06:18;3.65;;;2.25;;
16770;SDS011;8503;52.472;13.344;2023-11-21T03:07:01;7.60;;;3.60;;
16770;SDS011;8503;52.472;13.344;2023-11-21T03:07:43;6.60;;;2.38;;
16770;SDS011;8503;52.472;13.344;2023-11-21T03:08:28;6.15;;;3.03;;
16770;SDS011;8503;52.472;13.344;2023-11-21T03:09:11;6.32;;;3.55;;
16770;SDS011;8503;52.472;13.344;2023-11-21T03:09:54;6.85;;;3.05;;
16770;SDS011;8503;52.472;13.344;2023-11-21T03:10:37;4.78;;;2.95;;
16770;SDS011;8503;52.472;13.344;2023-11-21T03:11:20;5.78;;;2.22;;
16770;SDS011;8503;52.472;13.344;2023-11-21T03:12:04;4.93;;;1.80;;
16770;SDS011;8503;52.472;13.344;2023-11-21T03:12:47;5.47;;;2.92;;
16770;SDS011;8503;52.472;13.344;2023-11-21T03:13:29;3.63;;;1.63;;
16770;SDS011;8503;52.472;13.344;2023-11-21T03:14:13;5.05;;;2.63;;
16770;SDS011;8503;52.472;13.344;2023-11-21T03:14:56;5.00;;;3.38;;
16770;SDS011;8503;52.472;13.344;2023-11-21T03:15:39;3.72;;;2.67;;
16770;SDS011;8503;52.472;13.344;2023-11-21T03:16:24;4.43;;;2.50;;
16770;SDS011;8503;52.472;13.344;2023-11-21T03:17:07;6.15;;;3.55;;
16770;SDS011;8503;52.472;13.344;2023-11-21T03:17:49;6.47;;;3.47;;
16770;SDS011;8503;52.472;13.344;2023-11-21T03:18:33;6.25;;;3.63;;
16770;SDS011;8503;52.472;13.344;2023-11-21T03:19:15;6.57;;;3.65;;
16770;SDS011;8503;52.472;13.344;2023-11-21T03:19:58;7.13;;;3.50;;
16770;SDS011;8503;52.472;13.344;2023-11-21T03:20:43;7.10;;;3.75;;
16770;SDS011;8503;52.472;13.344;2023-11-21T03:21:27;6.47;;;3.38;;
16770;SDS011;8503;52.472;13.344;2023-11-21T03:22:10;6.45;;;3.20;;
16770;SDS011;8503;52.472;13.344;2023-11-21T03:22:54;5.18;;;3.40;;
16770;SDS011;8503;52.472;13.344;2023-11-21T03:23:38;8.32;;;3.63;;
16770;SDS011;8503;52.472;13.344;2023-11-21T03:24:21;5.95;;;3.55;;
16770;SDS011;8503;52.472;13.344;2023-11-21T03:25:05;8.20;;;4.07;;
16770;SDS011;8503;52.472;13.344;2023-11-21T03:25:59;6.00;;;3.47;;
16770;SDS011;8503;52.472;13.344;2023-11-21T03:26:41;5.00;;;2.83;;
16770;SDS011;8503;52.472;13.344;2023-11-21T03:27:26;7.65;;;3.60;;
16770;SDS011;8503;52.472;13.344;2023-11-21T03:28:09;5.93;;;3.28;;
16770;SDS011;8503;52.472;13.344;2023-11-21T03:28:51;6.35;;;3.67;;
16770;SDS011;8503;52.472;13.344;2023-11-21T03:29:35;6.45;;;4.13;;
16770;SDS011;8503;52.472;13.344;2023-11-21T03:30:17;6.75;;;3.97;;
16770;SDS011;8503;52.472;13.344;2023-11-21T03:31:00;7.60;;;4.32;;
16770;SDS011;8503;52.472;13.344;2023-11-21T03:31:44;7.82;;;3.65;;
16770;SDS011;8503;52.472;13.344;2023-11-21T03:32:26;7.88;;;3.63;;
16770;SDS011;8503;52.472;13.344;2023-11-21T03:33:09;6.20;;;3.30;;
16770;SDS011;8503;52.472;13.344;2023-11-21T03:33:56;7.30;;;3.90;;
16770;SDS011;8503;52.472;13.344;2023-11-21T03:34:52;3.35;;;2.22;;
16770;SDS011;8503;52.472;13.344;2023-11-21T03:35:36;4.78;;;2.78;;
16770;SDS011;8503;52.472;13.344;2023-11-21T03:36:23;6.68;;;3.70;;
16770;SDS011;8503;52.472;13.344;2023-11-21T03:37:06;3.97;;;2.70;;
16770;SDS011;8503;52.472;13.344;2023-11-21T03:37:48;4.20;;;2.45;;
16770;SDS011;8503;52.472;13.344;2023-11-21T03:38:32;2.35;;;1.52;;
16770;SDS011;8503;52.472;13.344;2023-11-21T03:39:16;3.60;;;2.17;;
16770;SDS011;8503;52.472;13.344;2023-11-21T03:39:58;4.65;;;2.05;;
16770;SDS011;8503;52.472;13.344;2023-11-21T03:40:42;3.42;;;2.15;;
16770;SDS011;8503;52.472;13.344;2023-11-21T03:41:25;4.85;;;2.78;;
16770;SDS011;8503;52.472;13.344;2023-11-21T03:42:07;5.78;;;3.30;;
16770;SDS011;8503;52.472;13.344;2023-11-21T03:42:50;5.43;;;3.10;;
16770;SDS011;8503;52.472;13.344;2023-11-21T03:43:33;4.88;;;2.72;;
16770;SDS011;8503;52.472;13.344;2023-11-21T03:44:15;6.68;;;3.42;;
16770;SDS011;8503;52.472;13.344;2023-11-21T03:44:59;4.43;;;3.15;;
16770;SDS011;8503;52.472;13.344;2023-11-21T03:45:49;7.85;;;3.65;;
16770;SDS011;8503;52.472;13.344;2023-11-21T03:46:32;6.25;;;3.53;;
16770;SDS011;8503;52.472;13.344;2023-11-21T03:47:15;4.85;;;3.17;;
16770;SDS011;8503;52.472;13.344;2023-11-21T03:47:58;5.72;;;3.25;;
16770;SDS011;8503;52.472;13.344;2023-11-21T03:48:43;5.32;;;2.97;;
16770;SDS011;8503;52.472;13.344;2023-11-21T03:49:26;8.13;;;2.63;;
16770;SDS011;8503;52.472;13.344;2023-11-21T03:50:12;4.93;;;3.00;;
16770;SDS011;8503;52.472;13.344;2023-11-21T03:50:55;5.20;;;3.13;;
16770;SDS011;8503;52.472;13.344;2023-11-21T03:51:40;3.03;;;1.60;;
16770;SDS011;8503;52.472;13.344;2023-11-21T03:52:22;5.63;;;3.50;;
16770;SDS011;8503;52.472;13.344;2023-11-21T03:53:05;7.55;;;2.95;;
16770;SDS011;8503;52.472;13.344;2023-11-21T03:53:48;4.47;;;2.60;;
16770;SDS011;8503;52.472;13.344;2023-11-21T03:54:32;4.22;;;2.33;;
16770;SDS011;8503;52.472;13.344;2023-11-21T03:55:15;6.00;;;2.88;;
16770;SDS011;8503;52.472;13.344;2023-11-21T03:55:59;5.13;;;2.83;;
16770;SDS011;8503;52.472;13.344;2023-11-21T03:56:44;5.13;;;3.17;;
16770;SDS011;8503;52.472;13.344;2023-11-21T03:57:27;3.90;;;2.28;;
16770;SDS011;8503;52.472;13.344;2023-11-21T03:58:10;7.25;;;3.53;;
16770;SDS011;8503;52.472;13.344;2023-11-21T03:58:53;5.05;;;2.83;;
16770;SDS011;8503;52.472;13.344;2023-11-21T03:59:36;4.80;;;3.00;;
16770;SDS011;8503;52.472;13.344;2023-11-21T04:00:22;7.90;;;3.55;;
16770;SDS011;8503;52.472;13.344;2023-11-21T04:01:05;5.70;;;3.60;;
16770;SDS011;8503;52.472;13.344;2023-11-21T04:01:47;5.07;;;3.05;;
16770;SDS011;8503;52.472;13.344;2023-11-21T04:02:31;8.02;;;3.60;;
16770;SDS011;8503;52.472;13.344;2023-11-21T04:03:14;4.68;;;2.90;;
16770;SDS011;8503;52.472;13.344;2023-11-21T04:03:57;8.02;;;3.33;;
16770;SDS011;8503;52.472;13.344;2023-11-21T04:04:41;5.38;;;3.60;;
16770;SDS011;8503;52.472;13.344;2023-11-21T04:05:23;3.65;;;2.45;;
16770;SDS011;8503;52.472;13.344;2023-11-21T04:06:06;6.25;;;3.63;;
16770;SDS011;8503;52.472;13.344;2023-11-21T04:06:52;5.95;;;2.80;;
16770;SDS011;8503;52.472;13.344;2023-11-21T04:07:35;7.13;;;4.15;;
16770;SDS011;8503;52.472;13.344;2023-11-21T04:08:19;4.25;;;2.92;;
16770;SDS011;8503;52.472;13.344;2023-11-21T04:09:03;4.50;;;2.60;;
16770;SDS011;8503;52.472;13.344;2023-11-21T04:09:47;7.20;;;3.22;;
16770;SDS011;8503;52.472;13.344;2023-11-21T04:10:29;6.25;;;3.47;;
16770;SDS011;8503;52.472;13.344;2023-11-21T04:11:13;5.00;;;2.75;;
16770;SDS011;8503;52.472;13.344;2023-11-21T04:11:57;4.68;;;2.63;;
16770;SDS011;8503;52.472;13.344;2023-11-21T04:12:39;6.90;;;3.10;;
16770;SDS011;8503;52.472;13.344;2023-11-21T04:13:23;4.88;;;2.85;;
16770;SDS011;8503;52.472;13.344;2023-11-21T04:14:05;5.03;;;3.08;;
16770;SDS011;8503;52.472;13.344;2023-11-21T04:14:48;4.38;;;3.17;;
16770;SDS011;8503;52.472;13.344;2023-11-21T04:15:34;7.07;;;2.45;;
16770;SDS011;8503;52.472;13.344;2023-11-21T04:16:16;7.00;;;2.60;;
16770;SDS011;8503;52.472;13.344;2023-11-21T04:17:00;4.63;;;3.05;;
16770;SDS011;8503;52.472;13.344;2023-11-21T04:17:45;4.68;;;2.75;;
16770;SDS011;8503;52.472;13.344;2023-11-21T04:18:28;2.55;;;1.83;;
16770;SDS011;8503;52.472;13.344;2023-11-21T04:19:10;4.18;;;2.88;;
16770;SDS011;8503;52.472;13.344;2023-11-21T04:19:56;4.40;;;2.42;;
16770;SDS011;8503;52.472;13.344;2023-11-21T04:20:38;2.65;;;1.88;;
16770;SDS011;8503;52.472;13.344;2023-11-21T04:21:21;5.22;;;2.22;;